UAL360 KLAX-KDEN
Flight info
| Callsign | UAL360 |
|---|---|
| Flight time | 1h 59m |
| Altitude | 37000 |
| Route | ORCKA5 LAS J146 DICEE BUMMP SSKII4 |
| Aircraft | B738/M-SDE2E3FGHIRWXY/LB1 |
Departure
| Time | 2026-05-07 14:40 |
|---|---|
| Airport | Los Angeles International Airport (KLAX) |
Arrival
| Time | 2026-05-07 16:39 |
|---|---|
| Airport | Denver International Airport (KDEN) |
| Time | Latitude | Longitude | Altitude | Speed | Heading |
|---|---|---|---|---|---|
| 2026-05-07 14:10 | 33.94229 | -118.39903 | 125 ft | 0 kts | 263° |
| 2026-05-07 14:26 | 33.94232 | -118.39879 | 121 ft | 4 kts | 248° |
| 2026-05-07 14:26 | 33.94246 | -118.39855 | 122 ft | 4 kts | 202° |
| 2026-05-07 14:27 | 33.94260 | -118.39851 | 120 ft | 0 kts | 172° |
| 2026-05-07 14:29 | 33.94257 | -118.39851 | 120 ft | 2 kts | 172° |
| 2026-05-07 14:30 | 33.94223 | -118.39845 | 122 ft | 7 kts | 173° |
| 2026-05-07 14:30 | 33.94160 | -118.39835 | 123 ft | 10 kts | 173° |
| 2026-05-07 14:30 | 33.94097 | -118.39826 | 122 ft | 8 kts | 173° |
| 2026-05-07 14:30 | 33.94049 | -118.39827 | 123 ft | 0 kts | 178° |
| 2026-05-07 14:32 | 33.94047 | -118.39826 | 123 ft | 2 kts | 178° |
| 2026-05-07 14:32 | 33.94008 | -118.39821 | 122 ft | 10 kts | 173° |
| 2026-05-07 14:33 | 33.93925 | -118.39785 | 121 ft | 16 kts | 133° |
| 2026-05-07 14:33 | 33.93915 | -118.39641 | 125 ft | 20 kts | 82° |
| 2026-05-07 14:33 | 33.93939 | -118.39459 | 121 ft | 24 kts | 87° |
| 2026-05-07 14:33 | 33.93956 | -118.39247 | 121 ft | 26 kts | 82° |
| 2026-05-07 14:34 | 33.93978 | -118.39036 | 125 ft | 25 kts | 84° |
| 2026-05-07 14:34 | 33.93998 | -118.38839 | 120 ft | 23 kts | 83° |
| 2026-05-07 14:34 | 33.94017 | -118.38650 | 122 ft | 22 kts | 83° |
| 2026-05-07 14:34 | 33.94036 | -118.38467 | 123 ft | 22 kts | 82° |
| 2026-05-07 14:35 | 33.94054 | -118.38289 | 122 ft | 21 kts | 82° |
| 2026-05-07 14:35 | 33.94070 | -118.38122 | 121 ft | 14 kts | 83° |
| 2026-05-07 14:35 | 33.94079 | -118.38043 | 125 ft | 7 kts | 81° |
| 2026-05-07 14:35 | 33.94075 | -118.38017 | 125 ft | 0 kts | 123° |
| 2026-05-07 14:38 | 33.94075 | -118.38016 | 125 ft | 1 kts | 125° |
| 2026-05-07 14:38 | 33.94059 | -118.38006 | 122 ft | 5 kts | 161° |
| 2026-05-07 14:38 | 33.94007 | -118.37997 | 122 ft | 10 kts | 183° |
| 2026-05-07 14:39 | 33.93983 | -118.38050 | 125 ft | 7 kts | 265° |
| 2026-05-07 14:39 | 33.93977 | -118.38115 | 125 ft | 12 kts | 263° |
| 2026-05-07 14:39 | 33.93939 | -118.38474 | 122 ft | 78 kts | 263° |
| 2026-05-07 14:39 | 33.93848 | -118.39376 | 125 ft | 136 kts | 263° |
| 2026-05-07 14:40 | 33.93714 | -118.40676 | 367 ft | 163 kts | 263° |
| 2026-05-07 14:40 | 33.93583 | -118.42050 | 1027 ft | 171 kts | 263° |
| 2026-05-07 14:40 | 33.93431 | -118.43566 | 1381 ft | 197 kts | 263° |
| 2026-05-07 14:40 | 33.93258 | -118.45315 | 1622 ft | 222 kts | 263° |
| 2026-05-07 14:41 | 33.92922 | -118.47228 | 1807 ft | 246 kts | 251° |
| 2026-05-07 14:41 | 33.92289 | -118.49220 | 2250 ft | 261 kts | 248° |
| 2026-05-07 14:41 | 33.91567 | -118.51241 | 3016 ft | 264 kts | 247° |
| 2026-05-07 14:41 | 33.90688 | -118.53192 | 3727 ft | 270 kts | 230° |
| 2026-05-07 14:42 | 33.89178 | -118.54540 | 4456 ft | 274 kts | 202° |
| 2026-05-07 14:42 | 33.87299 | -118.54908 | 5164 ft | 278 kts | 174° |
| 2026-05-07 14:42 | 33.85476 | -118.54203 | 5913 ft | 277 kts | 147° |
| 2026-05-07 14:42 | 33.84054 | -118.52659 | 6689 ft | 276 kts | 131° |
| 2026-05-07 14:43 | 33.82799 | -118.50892 | 7387 ft | 279 kts | 129° |
| 2026-05-07 14:43 | 33.81555 | -118.49097 | 8101 ft | 281 kts | 128° |
| 2026-05-07 14:43 | 33.80301 | -118.47286 | 8846 ft | 282 kts | 128° |
| 2026-05-07 14:43 | 33.79035 | -118.45467 | 9581 ft | 284 kts | 128° |
| 2026-05-07 14:44 | 33.77970 | -118.43476 | 10234 ft | 285 kts | 108° |
| 2026-05-07 14:44 | 33.77656 | -118.41069 | 10441 ft | 304 kts | 84° |
| 2026-05-07 14:44 | 33.78275 | -118.38585 | 10607 ft | 323 kts | 60° |
| 2026-05-07 14:44 | 33.79743 | -118.36441 | 10761 ft | 344 kts | 41° |
| 2026-05-07 14:45 | 33.81722 | -118.34698 | 10817 ft | 363 kts | 33° |
| 2026-05-07 14:45 | 33.83961 | -118.33239 | 10811 ft | 368 kts | 25° |
| 2026-05-07 14:45 | 33.86342 | -118.32063 | 10946 ft | 373 kts | 26° |
| 2026-05-07 14:45 | 33.88605 | -118.30540 | 11594 ft | 372 kts | 34° |
| 2026-05-07 14:46 | 33.90697 | -118.28781 | 12263 ft | 371 kts | 36° |
| 2026-05-07 14:46 | 33.92792 | -118.26940 | 12892 ft | 373 kts | 37° |
| 2026-05-07 14:46 | 33.94896 | -118.25081 | 13461 ft | 377 kts | 37° |
| 2026-05-07 14:46 | 33.97028 | -118.23205 | 14011 ft | 381 kts | 36° |
| 2026-05-07 14:47 | 33.99179 | -118.21323 | 14565 ft | 383 kts | 36° |
| 2026-05-07 14:47 | 34.01341 | -118.19437 | 15164 ft | 385 kts | 36° |
| 2026-05-07 14:47 | 34.03514 | -118.17545 | 15748 ft | 386 kts | 36° |
| 2026-05-07 14:47 | 34.05699 | -118.15644 | 16308 ft | 389 kts | 36° |
| 2026-05-07 14:48 | 34.07904 | -118.13725 | 16818 ft | 392 kts | 36° |
| 2026-05-07 14:48 | 34.10124 | -118.11785 | 17378 ft | 394 kts | 37° |
| 2026-05-07 14:48 | 34.12183 | -118.09595 | 17934 ft | 396 kts | 45° |
| 2026-05-07 14:48 | 34.13933 | -118.07010 | 18453 ft | 400 kts | 54° |
| 2026-05-07 14:49 | 34.15495 | -118.04213 | 18897 ft | 403 kts | 55° |
| 2026-05-07 14:49 | 34.17052 | -118.01395 | 19330 ft | 406 kts | 55° |
| 2026-05-07 14:49 | 34.18607 | -117.98584 | 19751 ft | 408 kts | 54° |
| 2026-05-07 14:49 | 34.20198 | -117.95724 | 20130 ft | 411 kts | 55° |
| 2026-05-07 14:50 | 34.21802 | -117.92853 | 20599 ft | 412 kts | 54° |
| 2026-05-07 14:50 | 34.23432 | -117.89945 | 21122 ft | 414 kts | 54° |
| 2026-05-07 14:50 | 34.25055 | -117.87047 | 21480 ft | 418 kts | 54° |
| 2026-05-07 14:50 | 34.26671 | -117.84164 | 21847 ft | 422 kts | 54° |
| 2026-05-07 14:51 | 34.28323 | -117.81216 | 22265 ft | 424 kts | 54° |
| 2026-05-07 14:51 | 34.29980 | -117.78256 | 22622 ft | 427 kts | 54° |
| 2026-05-07 14:51 | 34.31648 | -117.75276 | 23015 ft | 429 kts | 54° |
| 2026-05-07 14:51 | 34.33328 | -117.72269 | 23406 ft | 431 kts | 54° |
| 2026-05-07 14:52 | 34.35014 | -117.69246 | 23753 ft | 433 kts | 54° |
| 2026-05-07 14:52 | 34.36734 | -117.66237 | 24043 ft | 436 kts | 53° |
| 2026-05-07 14:52 | 34.38512 | -117.63257 | 24352 ft | 437 kts | 52° |
| 2026-05-07 14:52 | 34.40315 | -117.60277 | 24666 ft | 439 kts | 52° |
| 2026-05-07 14:53 | 34.42127 | -117.57286 | 24955 ft | 442 kts | 52° |
| 2026-05-07 14:53 | 34.43943 | -117.54275 | 25248 ft | 444 kts | 52° |
| 2026-05-07 14:53 | 34.45761 | -117.51244 | 25637 ft | 446 kts | 52° |
| 2026-05-07 14:53 | 34.47584 | -117.48193 | 25933 ft | 448 kts | 52° |
| 2026-05-07 14:54 | 34.49409 | -117.45128 | 26241 ft | 450 kts | 52° |
| 2026-05-07 14:54 | 34.51242 | -117.42042 | 26542 ft | 451 kts | 52° |
| 2026-05-07 14:54 | 34.53080 | -117.38947 | 26811 ft | 453 kts | 52° |
| 2026-05-07 14:54 | 34.54925 | -117.35834 | 27066 ft | 455 kts | 52° |
| 2026-05-07 14:55 | 34.56775 | -117.32712 | 27318 ft | 457 kts | 52° |
| 2026-05-07 14:55 | 34.58631 | -117.29576 | 27605 ft | 458 kts | 52° |
| 2026-05-07 14:55 | 34.60462 | -117.26480 | 27975 ft | 456 kts | 52° |
| 2026-05-07 14:55 | 34.62333 | -117.23314 | 28386 ft | 454 kts | 52° |
| 2026-05-07 14:56 | 34.64171 | -117.20201 | 28750 ft | 454 kts | 52° |
| 2026-05-07 14:56 | 34.65988 | -117.17121 | 29018 ft | 453 kts | 52° |
| 2026-05-07 14:56 | 34.67815 | -117.14023 | 29480 ft | 451 kts | 52° |
| 2026-05-07 14:56 | 34.69635 | -117.10933 | 29955 ft | 448 kts | 52° |
| 2026-05-07 14:57 | 34.71446 | -117.07855 | 30308 ft | 448 kts | 52° |
| 2026-05-07 14:57 | 34.73262 | -117.04768 | 30583 ft | 449 kts | 52° |
| 2026-05-07 14:57 | 34.75078 | -117.01677 | 30878 ft | 449 kts | 52° |
| 2026-05-07 14:57 | 34.76894 | -116.98583 | 31207 ft | 448 kts | 52° |
| 2026-05-07 14:58 | 34.78698 | -116.95508 | 31521 ft | 447 kts | 52° |
| 2026-05-07 14:58 | 34.80504 | -116.92425 | 31829 ft | 447 kts | 52° |
| 2026-05-07 14:58 | 34.82308 | -116.89344 | 32129 ft | 447 kts | 52° |
| 2026-05-07 14:58 | 34.84106 | -116.86270 | 32486 ft | 445 kts | 52° |
| 2026-05-07 14:59 | 34.85891 | -116.83213 | 32957 ft | 440 kts | 52° |
| 2026-05-07 14:59 | 34.87660 | -116.80183 | 33320 ft | 438 kts | 52° |
| 2026-05-07 14:59 | 34.89403 | -116.77199 | 33540 ft | 439 kts | 52° |
| 2026-05-07 14:59 | 34.91177 | -116.74157 | 33752 ft | 441 kts | 52° |
| 2026-05-07 15:00 | 34.93044 | -116.71209 | 34032 ft | 438 kts | 47° |
| 2026-05-07 15:00 | 34.95083 | -116.68464 | 34321 ft | 436 kts | 45° |
| 2026-05-07 15:00 | 34.97160 | -116.65776 | 34526 ft | 436 kts | 44° |
| 2026-05-07 15:00 | 34.99252 | -116.63092 | 34685 ft | 437 kts | 44° |
| 2026-05-07 15:01 | 35.01344 | -116.60397 | 34876 ft | 437 kts | 44° |
| 2026-05-07 15:01 | 35.03425 | -116.57695 | 35089 ft | 437 kts | 45° |
| 2026-05-07 15:01 | 35.05497 | -116.54984 | 35336 ft | 436 kts | 45° |
| 2026-05-07 15:01 | 35.07553 | -116.52278 | 35622 ft | 434 kts | 45° |
| 2026-05-07 15:02 | 35.09600 | -116.49576 | 35806 ft | 434 kts | 45° |
| 2026-05-07 15:02 | 35.11658 | -116.46855 | 35933 ft | 436 kts | 45° |
| 2026-05-07 15:02 | 35.13714 | -116.44132 | 36097 ft | 436 kts | 45° |
| 2026-05-07 15:02 | 35.15771 | -116.41406 | 36356 ft | 436 kts | 45° |
| 2026-05-07 15:03 | 35.17824 | -116.38682 | 36563 ft | 435 kts | 45° |
| 2026-05-07 15:03 | 35.19871 | -116.35964 | 36787 ft | 434 kts | 45° |
| 2026-05-07 15:03 | 35.21915 | -116.33250 | 36929 ft | 435 kts | 45° |
| 2026-05-07 15:03 | 35.23946 | -116.30551 | 37071 ft | 436 kts | 45° |
| 2026-05-07 15:04 | 35.25995 | -116.27825 | 37273 ft | 435 kts | 45° |
| 2026-05-07 15:04 | 35.28043 | -116.25099 | 37482 ft | 435 kts | 45° |
| 2026-05-07 15:04 | 35.30079 | -116.22385 | 37774 ft | 431 kts | 45° |
| 2026-05-07 15:04 | 35.32097 | -116.19693 | 38023 ft | 430 kts | 45° |
| 2026-05-07 15:05 | 35.34125 | -116.16987 | 38161 ft | 430 kts | 45° |
| 2026-05-07 15:05 | 35.36148 | -116.14287 | 38242 ft | 432 kts | 45° |
| 2026-05-07 15:05 | 35.38188 | -116.11562 | 38346 ft | 433 kts | 45° |
| 2026-05-07 15:05 | 35.40222 | -116.08841 | 38499 ft | 433 kts | 45° |
| 2026-05-07 15:06 | 35.42257 | -116.06117 | 38669 ft | 432 kts | 45° |
| 2026-05-07 15:06 | 35.44288 | -116.03395 | 38792 ft | 432 kts | 45° |
| 2026-05-07 15:06 | 35.48323 | -115.97982 | 38998 ft | 432 kts | 45° |
| 2026-05-07 15:07 | 35.52387 | -115.92522 | 39051 ft | 433 kts | 45° |
| 2026-05-07 15:07 | 35.56431 | -115.87078 | 39069 ft | 430 kts | 45° |
| 2026-05-07 15:08 | 35.60449 | -115.81663 | 39058 ft | 427 kts | 45° |
| 2026-05-07 15:08 | 35.64437 | -115.76270 | 39075 ft | 425 kts | 45° |
| 2026-05-07 15:09 | 35.68369 | -115.70875 | 39073 ft | 423 kts | 46° |
| 2026-05-07 15:09 | 35.72280 | -115.65483 | 39083 ft | 422 kts | 46° |
| 2026-05-07 15:10 | 35.76186 | -115.60097 | 39096 ft | 422 kts | 46° |
| 2026-05-07 15:10 | 35.80097 | -115.54700 | 39097 ft | 422 kts | 46° |
| 2026-05-07 15:11 | 35.83980 | -115.49333 | 39098 ft | 422 kts | 46° |
| 2026-05-07 15:11 | 35.87885 | -115.43928 | 39100 ft | 423 kts | 46° |
| 2026-05-07 15:12 | 35.91798 | -115.38502 | 39105 ft | 423 kts | 46° |
| 2026-05-07 15:12 | 35.95715 | -115.33061 | 39099 ft | 424 kts | 46° |
| 2026-05-07 15:13 | 35.99630 | -115.27614 | 39131 ft | 424 kts | 47° |
| 2026-05-07 15:13 | 36.03546 | -115.22159 | 39118 ft | 424 kts | 47° |
| 2026-05-07 15:14 | 36.07310 | -115.16600 | 39116 ft | 426 kts | 54° |
| 2026-05-07 15:14 | 36.09909 | -115.10012 | 39126 ft | 429 kts | 67° |
| 2026-05-07 15:15 | 36.11971 | -115.03083 | 39112 ft | 429 kts | 67° |
| 2026-05-07 15:15 | 36.14056 | -114.96167 | 39063 ft | 429 kts | 67° |
| 2026-05-07 15:16 | 36.16167 | -114.89260 | 39049 ft | 429 kts | 67° |
| 2026-05-07 15:16 | 36.18279 | -114.82345 | 39039 ft | 428 kts | 67° |
| 2026-05-07 15:17 | 36.20393 | -114.75452 | 39021 ft | 428 kts | 66° |
| 2026-05-07 15:17 | 36.22507 | -114.68564 | 39003 ft | 427 kts | 66° |
| 2026-05-07 15:18 | 36.24258 | -114.62845 | 38993 ft | 427 kts | 66° |
| 2026-05-07 15:18 | 36.26700 | -114.54850 | 38984 ft | 426 kts | 67° |
| 2026-05-07 15:19 | 36.28453 | -114.49091 | 38983 ft | 426 kts | 67° |
| 2026-05-07 15:19 | 36.30544 | -114.42207 | 38987 ft | 426 kts | 67° |
| 2026-05-07 15:20 | 36.32629 | -114.35324 | 38992 ft | 426 kts | 67° |
| 2026-05-07 15:20 | 36.34698 | -114.28479 | 38990 ft | 426 kts | 67° |
| 2026-05-07 15:21 | 36.36776 | -114.21591 | 38988 ft | 426 kts | 67° |
| 2026-05-07 15:21 | 36.38851 | -114.14693 | 38994 ft | 427 kts | 67° |
| 2026-05-07 15:22 | 36.40923 | -114.07786 | 38999 ft | 427 kts | 67° |
| 2026-05-07 15:22 | 36.42989 | -114.00885 | 38997 ft | 427 kts | 67° |
| 2026-05-07 15:23 | 36.45051 | -113.93979 | 39018 ft | 427 kts | 67° |
| 2026-05-07 15:23 | 36.47111 | -113.87064 | 39027 ft | 427 kts | 67° |
| 2026-05-07 15:24 | 36.49165 | -113.80150 | 39029 ft | 427 kts | 67° |
| 2026-05-07 15:24 | 36.51218 | -113.73224 | 39057 ft | 427 kts | 67° |
| 2026-05-07 15:25 | 36.53269 | -113.66288 | 39043 ft | 428 kts | 67° |
| 2026-05-07 15:25 | 36.55302 | -113.59393 | 39063 ft | 428 kts | 67° |
| 2026-05-07 15:26 | 36.57360 | -113.52395 | 39060 ft | 428 kts | 67° |
| 2026-05-07 15:26 | 36.59391 | -113.45475 | 39073 ft | 428 kts | 68° |
| 2026-05-07 15:27 | 36.61431 | -113.38507 | 39082 ft | 429 kts | 67° |
| 2026-05-07 15:27 | 36.63468 | -113.31521 | 39088 ft | 429 kts | 68° |
| 2026-05-07 15:28 | 36.65492 | -113.24522 | 39088 ft | 429 kts | 68° |
| 2026-05-07 15:28 | 36.67506 | -113.17532 | 39131 ft | 429 kts | 68° |
| 2026-05-07 15:29 | 36.69520 | -113.10527 | 39161 ft | 429 kts | 68° |
| 2026-05-07 15:29 | 36.71532 | -113.03514 | 39175 ft | 429 kts | 68° |
| 2026-05-07 15:30 | 36.73538 | -112.96505 | 39187 ft | 429 kts | 68° |
| 2026-05-07 15:30 | 36.75542 | -112.89484 | 39190 ft | 429 kts | 68° |
| 2026-05-07 15:31 | 36.77541 | -112.82465 | 39181 ft | 430 kts | 68° |
| 2026-05-07 15:31 | 36.79538 | -112.75432 | 39163 ft | 430 kts | 68° |
| 2026-05-07 15:32 | 36.81533 | -112.68390 | 39149 ft | 431 kts | 68° |
| 2026-05-07 15:32 | 36.83526 | -112.61335 | 39120 ft | 431 kts | 68° |
| 2026-05-07 15:33 | 36.85517 | -112.54269 | 39105 ft | 432 kts | 68° |
| 2026-05-07 15:33 | 36.87508 | -112.47187 | 39108 ft | 432 kts | 68° |
| 2026-05-07 15:34 | 36.89487 | -112.40136 | 39103 ft | 433 kts | 68° |
| 2026-05-07 15:34 | 36.91486 | -112.33017 | 39108 ft | 434 kts | 68° |
| 2026-05-07 15:35 | 36.93486 | -112.25885 | 39107 ft | 435 kts | 68° |
| 2026-05-07 15:35 | 36.95481 | -112.18749 | 39110 ft | 435 kts | 68° |
| 2026-05-07 15:36 | 36.97477 | -112.11594 | 39105 ft | 436 kts | 68° |
| 2026-05-07 15:36 | 36.99474 | -112.04411 | 39108 ft | 437 kts | 68° |
| 2026-05-07 15:37 | 37.01466 | -111.97230 | 39107 ft | 438 kts | 68° |
| 2026-05-07 15:37 | 37.03458 | -111.90029 | 39102 ft | 438 kts | 68° |
| 2026-05-07 15:38 | 37.05447 | -111.82818 | 39101 ft | 438 kts | 69° |
| 2026-05-07 15:38 | 37.07432 | -111.75601 | 39100 ft | 439 kts | 69° |
| 2026-05-07 15:39 | 37.09414 | -111.68378 | 39098 ft | 439 kts | 69° |
| 2026-05-07 15:39 | 37.11396 | -111.61135 | 39098 ft | 439 kts | 69° |
| 2026-05-07 15:40 | 37.13373 | -111.53888 | 39168 ft | 440 kts | 69° |
| 2026-05-07 15:40 | 37.15347 | -111.46634 | 39151 ft | 440 kts | 69° |
| 2026-05-07 15:41 | 37.17315 | -111.39379 | 39147 ft | 439 kts | 69° |
| 2026-05-07 15:41 | 37.19279 | -111.32120 | 39122 ft | 440 kts | 69° |
| 2026-05-07 15:42 | 37.21227 | -111.24906 | 39113 ft | 439 kts | 69° |
| 2026-05-07 15:42 | 37.23553 | -111.17847 | 39097 ft | 437 kts | 61° |
| 2026-05-07 15:43 | 37.26321 | -111.11049 | 39094 ft | 437 kts | 60° |
| 2026-05-07 15:43 | 37.29103 | -111.04257 | 39104 ft | 438 kts | 60° |
| 2026-05-07 15:44 | 37.31851 | -110.97420 | 39102 ft | 439 kts | 61° |
| 2026-05-07 15:44 | 37.34572 | -110.90566 | 39104 ft | 439 kts | 61° |
| 2026-05-07 15:45 | 37.37287 | -110.83697 | 39110 ft | 439 kts | 61° |
| 2026-05-07 15:45 | 37.40002 | -110.76812 | 39109 ft | 440 kts | 61° |
| 2026-05-07 15:46 | 37.44072 | -110.66465 | 39110 ft | 440 kts | 61° |
| 2026-05-07 15:47 | 37.46785 | -110.59550 | 39126 ft | 440 kts | 61° |
| 2026-05-07 15:47 | 37.49494 | -110.52632 | 39118 ft | 441 kts | 61° |
| 2026-05-07 15:48 | 37.52185 | -110.45743 | 39141 ft | 442 kts | 61° |
| 2026-05-07 15:48 | 37.54895 | -110.38789 | 39124 ft | 442 kts | 61° |
| 2026-05-07 15:49 | 37.57606 | -110.31820 | 39124 ft | 443 kts | 61° |
| 2026-05-07 15:49 | 37.60307 | -110.24860 | 39132 ft | 442 kts | 61° |
| 2026-05-07 15:50 | 37.63009 | -110.17880 | 39127 ft | 443 kts | 61° |
| 2026-05-07 15:50 | 37.65706 | -110.10897 | 39137 ft | 443 kts | 61° |
| 2026-05-07 15:51 | 37.68404 | -110.03898 | 39140 ft | 443 kts | 61° |
| 2026-05-07 15:51 | 37.71102 | -109.96881 | 39135 ft | 444 kts | 61° |
| 2026-05-07 15:52 | 37.73795 | -109.89863 | 39140 ft | 445 kts | 62° |
| 2026-05-07 15:52 | 37.76493 | -109.82817 | 39141 ft | 445 kts | 62° |
| 2026-05-07 15:53 | 37.79162 | -109.75828 | 39152 ft | 444 kts | 62° |
| 2026-05-07 15:53 | 37.81847 | -109.68779 | 39140 ft | 445 kts | 61° |
| 2026-05-07 15:54 | 37.84533 | -109.61714 | 39186 ft | 445 kts | 62° |
| 2026-05-07 15:54 | 37.87210 | -109.54658 | 39184 ft | 446 kts | 62° |
| 2026-05-07 15:55 | 37.89895 | -109.47563 | 39179 ft | 446 kts | 62° |
| 2026-05-07 15:55 | 37.92574 | -109.40467 | 39155 ft | 447 kts | 61° |
| 2026-05-07 15:56 | 37.95249 | -109.33367 | 39169 ft | 447 kts | 62° |
| 2026-05-07 15:56 | 37.97920 | -109.26259 | 39175 ft | 447 kts | 61° |
| 2026-05-07 15:57 | 38.00590 | -109.19138 | 39175 ft | 447 kts | 61° |
| 2026-05-07 15:57 | 38.03253 | -109.12017 | 39180 ft | 447 kts | 61° |
| 2026-05-07 15:58 | 38.05016 | -109.07294 | 39191 ft | 447 kts | 61° |
| 2026-05-07 15:58 | 38.08554 | -108.97796 | 39203 ft | 448 kts | 61° |
| 2026-05-07 15:59 | 38.11238 | -108.90657 | 39200 ft | 448 kts | 60° |
| 2026-05-07 15:59 | 38.14029 | -108.83587 | 39198 ft | 448 kts | 59° |
| 2026-05-07 16:00 | 38.16833 | -108.76518 | 39218 ft | 448 kts | 59° |
| 2026-05-07 16:00 | 38.19627 | -108.69420 | 39212 ft | 449 kts | 60° |
| 2026-05-07 16:01 | 38.22417 | -108.62291 | 39197 ft | 451 kts | 60° |
| 2026-05-07 16:01 | 38.25205 | -108.55143 | 39197 ft | 451 kts | 60° |
| 2026-05-07 16:02 | 38.27996 | -108.47972 | 39193 ft | 452 kts | 60° |
| 2026-05-07 16:02 | 38.30784 | -108.40793 | 39198 ft | 453 kts | 60° |
| 2026-05-07 16:03 | 38.33578 | -108.33582 | 39194 ft | 454 kts | 60° |
| 2026-05-07 16:03 | 38.36370 | -108.26358 | 39205 ft | 455 kts | 59° |
| 2026-05-07 16:04 | 38.39147 | -108.19160 | 39230 ft | 456 kts | 60° |
| 2026-05-07 16:04 | 38.41937 | -108.11906 | 39237 ft | 456 kts | 60° |
| 2026-05-07 16:05 | 38.44732 | -108.04624 | 39268 ft | 456 kts | 60° |
| 2026-05-07 16:05 | 38.47511 | -107.97348 | 39283 ft | 456 kts | 60° |
| 2026-05-07 16:06 | 38.50262 | -107.90065 | 39288 ft | 455 kts | 60° |
| 2026-05-07 16:06 | 38.52544 | -107.84008 | 39288 ft | 455 kts | 60° |
| 2026-05-07 16:07 | 38.55283 | -107.76729 | 39191 ft | 455 kts | 60° |
| 2026-05-07 16:07 | 38.58021 | -107.69440 | 39203 ft | 455 kts | 60° |
| 2026-05-07 16:08 | 38.60752 | -107.62150 | 39202 ft | 455 kts | 60° |
| 2026-05-07 16:08 | 38.63481 | -107.54850 | 39220 ft | 455 kts | 60° |
| 2026-05-07 16:09 | 38.66189 | -107.47599 | 39221 ft | 455 kts | 60° |
| 2026-05-07 16:09 | 38.68955 | -107.40295 | 39237 ft | 456 kts | 60° |
| 2026-05-07 16:10 | 38.71731 | -107.32979 | 39247 ft | 457 kts | 60° |
| 2026-05-07 16:10 | 38.74502 | -107.25644 | 39250 ft | 458 kts | 60° |
| 2026-05-07 16:11 | 38.77270 | -107.18292 | 39252 ft | 459 kts | 60° |
| 2026-05-07 16:11 | 38.80036 | -107.10926 | 39239 ft | 459 kts | 60° |
| 2026-05-07 16:12 | 38.82795 | -107.03556 | 39264 ft | 458 kts | 60° |
| 2026-05-07 16:12 | 38.84160 | -106.99906 | 39036 ft | 463 kts | 60° |
| 2026-05-07 16:12 | 38.85564 | -106.96151 | 38442 ft | 466 kts | 60° |
| 2026-05-07 16:12 | 38.86957 | -106.92413 | 37893 ft | 463 kts | 60° |
| 2026-05-07 16:13 | 38.88344 | -106.88684 | 37308 ft | 461 kts | 60° |
| 2026-05-07 16:13 | 38.89721 | -106.84978 | 36713 ft | 460 kts | 60° |
| 2026-05-07 16:13 | 38.91099 | -106.81270 | 36127 ft | 460 kts | 60° |
| 2026-05-07 16:13 | 38.92479 | -106.77552 | 35447 ft | 462 kts | 59° |
| 2026-05-07 16:14 | 38.93861 | -106.73825 | 34809 ft | 463 kts | 59° |
| 2026-05-07 16:14 | 38.95244 | -106.70090 | 34150 ft | 464 kts | 59° |
| 2026-05-07 16:14 | 38.96626 | -106.66347 | 33701 ft | 459 kts | 59° |
| 2026-05-07 16:14 | 38.97973 | -106.62690 | 33529 ft | 448 kts | 59° |
| 2026-05-07 16:15 | 38.99290 | -106.59113 | 33338 ft | 437 kts | 59° |
| 2026-05-07 16:15 | 39.00580 | -106.55595 | 32962 ft | 433 kts | 59° |
| 2026-05-07 16:15 | 39.01863 | -106.52107 | 32544 ft | 436 kts | 59° |
| 2026-05-07 16:15 | 39.03175 | -106.48540 | 32119 ft | 450 kts | 59° |
| 2026-05-07 16:16 | 39.04535 | -106.44842 | 31670 ft | 465 kts | 60° |
| 2026-05-07 16:16 | 39.05905 | -106.41088 | 31198 ft | 462 kts | 60° |
| 2026-05-07 16:16 | 39.07261 | -106.37355 | 30726 ft | 459 kts | 60° |
| 2026-05-07 16:16 | 39.08606 | -106.33649 | 30274 ft | 455 kts | 60° |
| 2026-05-07 16:17 | 39.09943 | -106.29965 | 29758 ft | 452 kts | 60° |
| 2026-05-07 16:17 | 39.11268 | -106.26317 | 29262 ft | 448 kts | 60° |
| 2026-05-07 16:17 | 39.12567 | -106.22737 | 28800 ft | 445 kts | 60° |
| 2026-05-07 16:17 | 39.13875 | -106.19132 | 28316 ft | 442 kts | 60° |
| 2026-05-07 16:18 | 39.15168 | -106.15560 | 27817 ft | 439 kts | 60° |
| 2026-05-07 16:18 | 39.16447 | -106.12014 | 27386 ft | 434 kts | 60° |
| 2026-05-07 16:18 | 39.17713 | -106.08494 | 26920 ft | 431 kts | 60° |
| 2026-05-07 16:18 | 39.18970 | -106.04992 | 26445 ft | 429 kts | 60° |
| 2026-05-07 16:19 | 39.20221 | -106.01507 | 25978 ft | 427 kts | 60° |
| 2026-05-07 16:19 | 39.21464 | -105.98041 | 25527 ft | 425 kts | 60° |
| 2026-05-07 16:19 | 39.22704 | -105.94579 | 25043 ft | 424 kts | 61° |
| 2026-05-07 16:19 | 39.23936 | -105.91136 | 24535 ft | 422 kts | 61° |
| 2026-05-07 16:20 | 39.25171 | -105.87704 | 24057 ft | 421 kts | 60° |
| 2026-05-07 16:20 | 39.26404 | -105.84283 | 23564 ft | 420 kts | 61° |
| 2026-05-07 16:20 | 39.27635 | -105.80870 | 23056 ft | 418 kts | 61° |
| 2026-05-07 16:20 | 39.28856 | -105.77475 | 22566 ft | 415 kts | 61° |
| 2026-05-07 16:21 | 39.30066 | -105.74110 | 22103 ft | 412 kts | 61° |
| 2026-05-07 16:21 | 39.31244 | -105.70824 | 21826 ft | 404 kts | 61° |
| 2026-05-07 16:21 | 39.32410 | -105.67565 | 21680 ft | 394 kts | 61° |
| 2026-05-07 16:21 | 39.33568 | -105.64366 | 21256 ft | 392 kts | 60° |
| 2026-05-07 16:22 | 39.34727 | -105.61195 | 20850 ft | 390 kts | 60° |
| 2026-05-07 16:22 | 39.35887 | -105.58030 | 20429 ft | 388 kts | 61° |
| 2026-05-07 16:22 | 39.37036 | -105.54890 | 20028 ft | 386 kts | 61° |
| 2026-05-07 16:22 | 39.38177 | -105.51763 | 19625 ft | 384 kts | 61° |
| 2026-05-07 16:23 | 39.39306 | -105.48662 | 19375 ft | 377 kts | 61° |
| 2026-05-07 16:23 | 39.40411 | -105.45615 | 19198 ft | 369 kts | 61° |
| 2026-05-07 16:23 | 39.41488 | -105.42650 | 19046 ft | 360 kts | 60° |
| 2026-05-07 16:23 | 39.42707 | -105.39874 | 18828 ft | 350 kts | 52° |
| 2026-05-07 16:24 | 39.44101 | -105.37326 | 18611 ft | 342 kts | 49° |
| 2026-05-07 16:24 | 39.45502 | -105.34879 | 18388 ft | 336 kts | 49° |
| 2026-05-07 16:24 | 39.46883 | -105.32449 | 18154 ft | 334 kts | 50° |
| 2026-05-07 16:24 | 39.48234 | -105.30029 | 17917 ft | 330 kts | 50° |
| 2026-05-07 16:25 | 39.49563 | -105.27611 | 17720 ft | 327 kts | 50° |
| 2026-05-07 16:25 | 39.50871 | -105.25211 | 17499 ft | 326 kts | 50° |
| 2026-05-07 16:25 | 39.52177 | -105.22804 | 17280 ft | 326 kts | 50° |
| 2026-05-07 16:25 | 39.53471 | -105.20412 | 17067 ft | 324 kts | 50° |
| 2026-05-07 16:26 | 39.54768 | -105.18014 | 16822 ft | 325 kts | 51° |
| 2026-05-07 16:26 | 39.56047 | -105.15648 | 16555 ft | 326 kts | 51° |
| 2026-05-07 16:26 | 39.57349 | -105.13235 | 16269 ft | 327 kts | 51° |
| 2026-05-07 16:26 | 39.58650 | -105.10820 | 16000 ft | 328 kts | 51° |
| 2026-05-07 16:27 | 39.59955 | -105.08397 | 15725 ft | 328 kts | 51° |
| 2026-05-07 16:27 | 39.61256 | -105.05976 | 15454 ft | 326 kts | 52° |
| 2026-05-07 16:27 | 39.62543 | -105.03582 | 15175 ft | 322 kts | 52° |
| 2026-05-07 16:27 | 39.63815 | -105.01213 | 14909 ft | 318 kts | 52° |
| 2026-05-07 16:28 | 39.65074 | -104.98865 | 14671 ft | 315 kts | 52° |
| 2026-05-07 16:28 | 39.66319 | -104.96544 | 14408 ft | 312 kts | 52° |
| 2026-05-07 16:28 | 39.67552 | -104.94245 | 14140 ft | 309 kts | 52° |
| 2026-05-07 16:28 | 39.68772 | -104.91970 | 13892 ft | 306 kts | 52° |
| 2026-05-07 16:29 | 39.69991 | -104.89692 | 13600 ft | 308 kts | 51° |
| 2026-05-07 16:29 | 39.71220 | -104.87394 | 13331 ft | 310 kts | 52° |
| 2026-05-07 16:29 | 39.72622 | -104.85336 | 13024 ft | 300 kts | 31° |
| 2026-05-07 16:29 | 39.74466 | -104.84253 | 12841 ft | 286 kts | 10° |
| 2026-05-07 16:30 | 39.76406 | -104.84018 | 12633 ft | 277 kts | 358° |
| 2026-05-07 16:30 | 39.78320 | -104.84018 | 12428 ft | 272 kts | 357° |
| 2026-05-07 16:30 | 39.80198 | -104.84018 | 12219 ft | 267 kts | 356° |
| 2026-05-07 16:30 | 39.82043 | -104.84003 | 12020 ft | 263 kts | 357° |
| 2026-05-07 16:31 | 39.83861 | -104.83982 | 11832 ft | 258 kts | 357° |
| 2026-05-07 16:31 | 39.85642 | -104.83971 | 11649 ft | 254 kts | 356° |
| 2026-05-07 16:31 | 39.87395 | -104.83956 | 11467 ft | 250 kts | 358° |
| 2026-05-07 16:31 | 39.89117 | -104.83936 | 11285 ft | 245 kts | 357° |
| 2026-05-07 16:32 | 39.90808 | -104.83919 | 11113 ft | 241 kts | 357° |
| 2026-05-07 16:32 | 39.92479 | -104.83895 | 10904 ft | 240 kts | 357° |
| 2026-05-07 16:32 | 39.94143 | -104.83875 | 10556 ft | 244 kts | 357° |
| 2026-05-07 16:32 | 39.95850 | -104.83851 | 10228 ft | 248 kts | 357° |
| 2026-05-07 16:33 | 39.97586 | -104.83812 | 9895 ft | 249 kts | 358° |
| 2026-05-07 16:33 | 39.99309 | -104.83769 | 9513 ft | 245 kts | 357° |
| 2026-05-07 16:33 | 40.00994 | -104.83721 | 9108 ft | 240 kts | 358° |
| 2026-05-07 16:33 | 40.02641 | -104.83669 | 8741 ft | 232 kts | 358° |
| 2026-05-07 16:34 | 40.04232 | -104.83594 | 8362 ft | 226 kts | 2° |
| 2026-05-07 16:34 | 40.05638 | -104.82778 | 8061 ft | 225 kts | 44° |
| 2026-05-07 16:34 | 40.06290 | -104.81005 | 7979 ft | 213 kts | 75° |
| 2026-05-07 16:34 | 40.06450 | -104.79119 | 7970 ft | 208 kts | 91° |
| 2026-05-07 16:35 | 40.06140 | -104.77279 | 7968 ft | 210 kts | 111° |
| 2026-05-07 16:35 | 40.05585 | -104.75504 | 7974 ft | 213 kts | 114° |
| 2026-05-07 16:35 | 40.05005 | -104.73732 | 7956 ft | 211 kts | 114° |
| 2026-05-07 16:35 | 40.04431 | -104.71973 | 7957 ft | 209 kts | 114° |
| 2026-05-07 16:36 | 40.03844 | -104.70238 | 7959 ft | 208 kts | 122° |
| 2026-05-07 16:36 | 40.02834 | -104.68974 | 7987 ft | 199 kts | 160° |
| 2026-05-07 16:36 | 40.01462 | -104.68628 | 7672 ft | 206 kts | 182° |
| 2026-05-07 16:36 | 40.00034 | -104.68571 | 7419 ft | 205 kts | 184° |
| 2026-05-07 16:37 | 39.98618 | -104.68577 | 7153 ft | 202 kts | 186° |
| 2026-05-07 16:37 | 39.97240 | -104.68594 | 6908 ft | 192 kts | 186° |
| 2026-05-07 16:37 | 39.95962 | -104.68607 | 6695 ft | 175 kts | 187° |
| 2026-05-07 16:37 | 39.94806 | -104.68621 | 6482 ft | 158 kts | 188° |
| 2026-05-07 16:38 | 39.93737 | -104.68634 | 6226 ft | 147 kts | 185° |
| 2026-05-07 16:38 | 39.92711 | -104.68648 | 6023 ft | 152 kts | 184° |
| 2026-05-07 16:38 | 39.91662 | -104.68658 | 5793 ft | 150 kts | 186° |
| 2026-05-07 16:38 | 39.90636 | -104.68682 | 5611 ft | 147 kts | 182° |
| 2026-05-07 16:39 | 39.89612 | -104.68689 | 5388 ft | 147 kts | 181° |
| 2026-05-07 16:39 | 39.88670 | -104.68697 | 5355 ft | 120 kts | 180° |
| 2026-05-07 16:39 | 39.87982 | -104.68702 | 5363 ft | 78 kts | 180° |
| 2026-05-07 16:39 | 39.87585 | -104.68705 | 5363 ft | 46 kts | 180° |
| 2026-05-07 16:40 | 39.87352 | -104.68660 | 5356 ft | 32 kts | 161° |
| 2026-05-07 16:40 | 39.87238 | -104.68586 | 5356 ft | 14 kts | 151° |
| 2026-05-07 16:40 | 39.87155 | -104.68525 | 5358 ft | 13 kts | 149° |
| 2026-05-07 16:40 | 39.87069 | -104.68500 | 5359 ft | 13 kts | 178° |
| 2026-05-07 16:41 | 39.86980 | -104.68500 | 5358 ft | 13 kts | 180° |
| 2026-05-07 16:41 | 39.86894 | -104.68501 | 5359 ft | 12 kts | 180° |
| 2026-05-07 16:41 | 39.86810 | -104.68500 | 5362 ft | 12 kts | 179° |
| 2026-05-07 16:41 | 39.86728 | -104.68503 | 5362 ft | 12 kts | 181° |
| 2026-05-07 16:42 | 39.86648 | -104.68504 | 5364 ft | 11 kts | 180° |
| 2026-05-07 16:42 | 39.86571 | -104.68505 | 5362 ft | 11 kts | 180° |
| 2026-05-07 16:42 | 39.86495 | -104.68506 | 5364 ft | 11 kts | 181° |
| 2026-05-07 16:42 | 39.86422 | -104.68507 | 5366 ft | 10 kts | 181° |
| 2026-05-07 16:43 | 39.86350 | -104.68508 | 5366 ft | 11 kts | 181° |
| 2026-05-07 16:43 | 39.86268 | -104.68509 | 5365 ft | 13 kts | 180° |
| 2026-05-07 16:43 | 39.86164 | -104.68509 | 5363 ft | 16 kts | 181° |
| 2026-05-07 16:43 | 39.86051 | -104.68501 | 5362 ft | 16 kts | 151° |
| 2026-05-07 16:44 | 39.86031 | -104.68365 | 5370 ft | 16 kts | 90° |
| 2026-05-07 16:44 | 39.86031 | -104.68227 | 5384 ft | 15 kts | 91° |
| 2026-05-07 16:44 | 39.86030 | -104.68095 | 5385 ft | 14 kts | 89° |
| 2026-05-07 16:44 | 39.86015 | -104.67970 | 5385 ft | 14 kts | 101° |
| 2026-05-07 16:45 | 39.86011 | -104.67849 | 5385 ft | 13 kts | 90° |
| 2026-05-07 16:45 | 39.86003 | -104.67744 | 5382 ft | 10 kts | 134° |
| 2026-05-07 16:45 | 39.85942 | -104.67736 | 5385 ft | 0 kts | 181° |
| 2026-05-07 16:46 | 39.85939 | -104.67736 | 5385 ft | 1 kts | 181° |
| 2026-05-07 16:46 | 39.85936 | -104.67736 | 5385 ft | 0 kts | 180° |